Bei Facebook empfehlenBei Twitter postenGoogle plusPinterest

Das Wetter im Erzgebirge am 15.07.2017

Wetter und Klima am 15.07.2017 Holzhau im Erzgebirge (630m ü.NN)
Letzte gemessene Temperatur und Uhrzeit der Messung23:45:00 Uhr10.10 °C
Temperatur (Maximum / Höchstwert) und Uhrzeit der Messung16:30:00 Uhr18.80 °C
Temperatur (Minimum / Tiefstwert) und Uhrzeit der Messung01:45:005.80 °C
Errechneter Absolutwert der Temperaturschwankungen zwischen Tmin und Tmax des Tages13.00 K
Errechnete Tagesmitteltemperatur12.60000 °C
Gesamt - Niederschlag des Tages (in flüssiger Form)5.18 Liter / m²
Luftdruck (Maximum / Höchstwert) und Zeitpunkt der Messung23:45:00 Uhr1020.50 hPa
Luftdruck (Minimum / Tiefstwert) und Zeitpunkt der Messung01:00:00 Uhr1013.10 hPa
Errechneter Absolutwert der Luftdruckschwankungen des Tages7.40 hPa
Höchste gemessene Windgeschwindigkeit und Uhrzeit der Messung13:45:00 Uhr15.48 km/h
Errechnete Windhäufigkeit in Relation zu den Messwerten des Tages5.20833 %
Niedrigste Windkühle (Windchill) und Zeitpunkt der Messung01:45:00 Uhr5.80 °C
Taupunkt (Maximum / Höchstwert) und Uhrzeit der Messung14:00:00 Uhr13.80 °C
Taupunkt (Minimum / Tiefstwert) und Uhrzeit der Messung00:45:004.50 °C
Anzahl der automatisch eingelesenen Messwerte 96

Detaillierte Wetter- und Klima- Messwerte für den 15.07.2017 in Holzhau im Erzgebirge (630m ü.NN)
ZeitTemperaturLuftdruckRel. LuftfeuchteWindWindrichtungWindchillTaupunktNiederschlag l/m²
23:45:0010.10 °C1020.50 hPa88.00 %8.20 °C5.18
23:30:0010.40 °C1020.40 hPa87.00 %8.30 °C5.18
23:15:0010.80 °C1020.40 hPa87.00 %8.70 °C5.18
23:00:0010.90 °C1020.50 hPa87.00 %8.80 °C5.18
22:45:0010.90 °C1020.30 hPa87.00 %8.80 °C5.18
22:30:0011.00 °C1020.30 hPa86.00 %8.80 °C5.18
22:15:0010.90 °C1020.40 hPa86.00 %8.70 °C5.18
22:00:0010.90 °C1020.10 hPa85.00 %8.50 °C5.18
21:45:0011.40 °C1020.10 hPa83.00 %8.60 °C5.18
21:30:0012.10 °C1019.70 hPa81.00 %8.90 °C5.18
21:15:0012.70 °C1019.60 hPa79.00 %9.20 °C5.18
21:00:0013.30 °C1019.60 hPa78.00 %9.50 °C5.18
20:45:0014.10 °C1019.40 hPa76.00 %9.90 °C5.18
20:30:0014.80 °C1019.40 hPa75.00 %10.40 °C5.18
20:15:0014.60 °C1019.50 hPa75.00 %10.20 °C5.18
20:00:0014.90 °C1019.40 hPa73.00 %10.10 °C5.18
19:45:0015.20 °C1019.40 hPa72.00 %10.20 °C5.18
19:30:0015.30 °C1019.30 hPa72.00 %10.30 °C5.18
19:15:0015.10 °C1019.20 hPa73.00 %10.30 °C5.18
19:00:0015.30 °C1018.80 hPa71.00 %10.10 °C5.18
18:45:0015.80 °C1019.00 hPa70.00 %10.30 °C5.18
18:30:0015.90 °C1018.90 hPa72.00 %10.90 °C5.18
18:15:0016.30 °C1018.70 hPa71.00 %11.00 °C5.18
18:00:0016.60 °C1018.70 hPa70.00 %11.10 °C5.18
17:45:0017.10 °C1018.50 hPa70.00 %11.60 °C5.18
17:30:0017.40 °C1018.60 hPa70.00 %11.90 °C5.18
17:15:0017.60 °C1018.70 hPa69.00 %11.80 °C5.18
17:00:0017.80 °C1018.40 hPa68.00 %11.80 °C5.18
16:45:0018.40 °C1018.30 hPa67.00 %12.20 °C5.18
16:30:0018.80 °C1018.20 hPa68.00 %12.80 °C5.18
16:15:0018.60 °C1018.00 hPa69.00 %3.96 km/hWNW18.60 °C12.80 °C5.18
16:00:0018.20 °C1018.00 hPa72.00 %13.10 °C5.18
15:45:0017.90 °C1017.80 hPa72.00 %12.80 °C5.18
15:30:0016.70 °C1018.00 hPa77.00 %12.70 °C5.18
15:15:0016.10 °C1017.80 hPa75.00 %11.70 °C5.18
15:00:0017.40 °C1017.80 hPa72.00 %12.30 °C5.18
14:45:0017.80 °C1017.70 hPa71.00 %12.50 °C5.18
14:30:0018.00 °C1017.70 hPa72.00 %12.90 °C5.18
14:15:0017.80 °C1017.70 hPa76.00 %1.44 km/hW17.80 °C13.50 °C5.18
14:00:0017.50 °C1017.60 hPa79.00 %13.80 °C5.18
13:45:0015.90 °C1017.60 hPa87.00 %15.48 km/hW15.90 °C13.70 °C4.66
13:30:0015.00 °C1017.60 hPa87.00 %12.90 °C4.66
13:15:0013.50 °C1017.50 hPa86.00 %11.20 °C4.66
13:00:0013.30 °C1017.60 hPa83.00 %10.50 °C4.66
12:45:0014.90 °C1017.50 hPa77.00 %10.90 °C3.62
12:30:0016.30 °C1017.40 hPa74.00 %11.70 °C3.11
12:15:0015.90 °C1017.10 hPa76.00 %11.70 °C3.11
12:00:0015.40 °C1017.00 hPa75.00 %11.00 °C3.11
11:45:0016.50 °C1016.80 hPa74.00 %11.52 km/hNW16.50 °C11.90 °C3.11
11:30:0016.80 °C1016.80 hPa75.00 %12.30 °C3.11
11:15:0016.90 °C1016.50 hPa72.00 %11.80 °C3.11
11:00:0017.50 °C1016.10 hPa72.00 %12.40 °C3.11
10:45:0016.40 °C1016.30 hPa76.00 %12.20 °C3.11
10:30:0016.60 °C1016.20 hPa77.00 %12.60 °C3.11
10:15:0017.10 °C1015.90 hPa77.00 %13.00 °C3.11
10:00:0016.40 °C1015.80 hPa82.00 %13.30 °C3.11
09:45:0015.10 °C1015.90 hPa86.00 %12.80 °C3.11
09:30:0013.90 °C1015.80 hPa88.00 %11.90 °C3.11
09:15:0013.00 °C1015.70 hPa90.00 %11.40 °C3.11
09:00:0012.40 °C1015.50 hPa92.00 %11.10 °C3.11
08:45:0011.70 °C1015.30 hPa93.00 %10.60 °C3.11
08:30:0011.40 °C1015.20 hPa94.00 %10.50 °C3.11
08:15:0011.10 °C1015.00 hPa94.00 %10.20 °C3.11
08:00:0010.40 °C1014.90 hPa94.00 %9.50 °C3.11
07:45:0010.10 °C1014.90 hPa94.00 %9.20 °C3.11
07:30:009.80 °C1014.80 hPa94.00 %8.90 °C3.11
07:15:009.60 °C1014.70 hPa94.00 %8.70 °C3.11
07:00:009.70 °C1014.60 hPa94.00 %8.80 °C3.11
06:45:009.80 °C1014.60 hPa94.00 %8.90 °C3.11
06:30:009.60 °C1014.50 hPa94.00 %8.70 °C3.11
06:15:009.40 °C1014.50 hPa94.00 %8.50 °C2.59
06:00:009.40 °C1014.40 hPa94.00 %8.50 °C2.59
05:45:009.20 °C1014.20 hPa94.00 %8.30 °C2.59
05:30:009.10 °C1014.00 hPa94.00 %8.20 °C2.59
05:15:009.10 °C1013.90 hPa93.00 %8.00 °C2.59
05:00:009.10 °C1013.40 hPa94.00 %8.20 °C2.59
04:45:009.20 °C1013.40 hPa94.00 %8.30 °C2.59
04:30:009.10 °C1013.50 hPa94.00 %8.20 °C2.59
04:15:009.20 °C1013.60 hPa94.00 %8.30 °C2.07
04:00:009.00 °C1013.90 hPa94.00 %8.10 °C1.55
03:45:008.60 °C1013.90 hPa93.00 %7.50 °C0.52
03:30:007.90 °C1013.90 hPa94.00 %7.00 °C0.52
03:15:007.20 °C1013.90 hPa93.00 %6.10 °C0.52
03:00:006.90 °C1013.90 hPa93.00 %5.80 °C0.52
02:45:006.60 °C1013.80 hPa93.00 %5.60 °C 
02:30:006.40 °C1013.80 hPa93.00 %5.40 °C 
02:15:006.20 °C1013.70 hPa93.00 %5.20 °C 
02:00:005.90 °C1013.50 hPa93.00 %4.90 °C 
01:45:005.80 °C1013.40 hPa93.00 %4.80 °C 
01:30:005.80 °C1013.30 hPa92.00 %4.60 °C 
01:15:005.80 °C1013.20 hPa92.00 %4.60 °C 
01:00:005.90 °C1013.10 hPa92.00 %9.00 km/hOSO5.90 °C4.70 °C 
00:45:005.90 °C1013.20 hPa91.00 %4.50 °C 
00:30:005.90 °C1013.30 hPa91.00 %4.50 °C 
00:15:006.10 °C1013.30 hPa90.00 %4.60 °C 
00:00:006.50 °C1013.30 hPa90.00 %5.00 °C 

Permanenter Link zu dieser Seite: Wetter im Erzgebirge am 15.07.2017
Performance-Info: Die Erstellung der Seite / Statistik(en) / Tabelle(n) erforderte 5 Datenbankserver-Abfrage(n) und dauerte 124 Millisekunden. (Dieser Messwert ist von der Gesamt-Auslastung des Servers abhängig.)
Erzgebirge - Wetter | Erzgebirge - Wetter (Mobilgeräte) | Komplette Klimadatenbank